Hillsboro, TX

10:03 AM CDT on April 28, 2015 (GMT -0500)
Hillsboro | | Change Station
CLOSE
Current Station
Airport
Location: Hillsboro,
Elevation: 686 ft
Nearby Weather Stations

Elev 686 ft 32.08 °N, 97.10 °W | Updated 8 minutes ago

Overcast
Overcast
54 °F
Feels Like 54 °F
N
12
Wind Variable Wind from North

Today
High -- | Low -- °F
--% Chance of Precip.
Yesterday
High -- | Low -- °F
Precip. -- in
6:45 AM 8:06 PM
Waxing Gibbous, 74% visible
Pressure 30.02 in
Visibility 10.0 miles
Clouds Overcast 2000 ft
Dew Point 50 °F
Humidity 88%
Rainfall 0.15 in
Snow Depth Not available.
UV 1 out of 12
Pollen 4.20 out of 12
Air Quality Not available.
Flu Activity Local Activity
METAR KINJ 281455Z AUTO 36010KT 10SM OVC020 12/10 A3002 RMK AO2 P0001 60008 T01200100

More Conditions Fewer Conditions

Pressure 30.02 in
Visibility 10.0 miles
Clouds Overcast 2000 ft
Dew Point 50 °F
Humidity 88%
Rainfall 0.15 in
Snow Depth Not available.
UV 1 out of 12
Pollen 4.20 out of 12
Air Quality Not available.
Flu Activity Local Activity
METAR KINJ 281455Z AUTO 36010KT 10SM OVC020 12/10 A3002 RMK AO2 P0001 60008 T01200100

More Conditions Fewer Conditions

Nowcast | as of 8:43 am CDT on April 28, 2015

Light to moderate rain will move south and east across areas from Comanche and Stephenville...to Lampasas...Waco...and Corsicana through late morning. The whole area of rain will slowly spread east during the day as an upper low slowly moves east. Other isolated areas of sprinkles or light rain will occur elsewhere. Localized rainfall totals from a few hundreths to over 1/10 of an inch are possible. Otherwise...brisk...cloudy and cool conditions will continue with north winds 10 to 20 mph and temperatures only slowly rising through the 50s through midday.

×

10-Day Weather Forecast

Almanac

Astronomy

Apr. 28, 2015 Rise Set
Actual Time
Civil Twilight
Nautical Twilight
Astronomical Twilight
Moon
Length of Visible Light
Length of Day
Tomorrow will be .
, % of the Moon is Illuminated

Today's Extremes

State Highs State Lows

Community

WunderPhotos

Upload Photos

1,817,661 photos uploaded!

WunderBlogs® & News

Nearby

Air Quality

  Air Quality AQ Index Pollutant
Not available.

Snow Depth

Station Depth Elevation

Earthquake Activity

City Distance Mag. Time & Date
Minimum magnitude displayed is 2.5.

Coastal Water Temperatures

Place Temperature

Stations

Nearby Weather Stations

Station Location Temp. Windchill Dew Point Humidity Wind Precip. Elev Updated Type